sensor_id;sensor_type;location;lat;lon;timestamp;P1;durP1;ratioP1;P2;durP2;ratioP2
52642;SDS011;38531;53.296;6.614;2022-11-20T00:01:21;5.82;;;2.95;;
52642;SDS011;38531;53.296;6.614;2022-11-20T00:03:49;4.82;;;2.67;;
52642;SDS011;38531;53.296;6.614;2022-11-20T00:06:17;5.47;;;2.50;;
52642;SDS011;38531;53.296;6.614;2022-11-20T00:08:44;8.55;;;3.90;;
52642;SDS011;38531;53.296;6.614;2022-11-20T00:11:11;6.45;;;3.30;;
52642;SDS011;38531;53.296;6.614;2022-11-20T00:13:38;7.72;;;3.92;;
52642;SDS011;38531;53.296;6.614;2022-11-20T00:16:05;9.02;;;3.33;;
52642;SDS011;38531;53.296;6.614;2022-11-20T00:18:32;7.43;;;3.75;;
52642;SDS011;38531;53.296;6.614;2022-11-20T00:21:32;7.50;;;3.65;;
52642;SDS011;38531;53.296;6.614;2022-11-20T00:23:53;6.00;;;3.00;;
52642;SDS011;38531;53.296;6.614;2022-11-20T00:26:20;7.03;;;3.30;;
52642;SDS011;38531;53.296;6.614;2022-11-20T00:28:51;8.07;;;3.50;;
52642;SDS011;38531;53.296;6.614;2022-11-20T00:31:18;8.32;;;3.55;;
52642;SDS011;38531;53.296;6.614;2022-11-20T00:33:44;6.88;;;3.20;;
52642;SDS011;38531;53.296;6.614;2022-11-20T00:36:11;5.65;;;2.58;;
52642;SDS011;38531;53.296;6.614;2022-11-20T00:38:39;6.85;;;3.25;;
52642;SDS011;38531;53.296;6.614;2022-11-20T00:41:05;8.88;;;3.38;;
52642;SDS011;38531;53.296;6.614;2022-11-20T00:43:33;9.52;;;3.42;;
52642;SDS011;38531;53.296;6.614;2022-11-20T00:45:59;6.45;;;3.28;;
52642;SDS011;38531;53.296;6.614;2022-11-20T00:48:26;7.10;;;3.40;;
52642;SDS011;38531;53.296;6.614;2022-11-20T00:50:52;7.15;;;3.33;;
52642;SDS011;38531;53.296;6.614;2022-11-20T00:53:18;6.65;;;3.33;;
52642;SDS011;38531;53.296;6.614;2022-11-20T00:55:52;7.10;;;3.65;;
52642;SDS011;38531;53.296;6.614;2022-11-20T00:58:19;7.80;;;3.10;;
52642;SDS011;38531;53.296;6.614;2022-11-20T01:00:44;6.45;;;2.92;;
52642;SDS011;38531;53.296;6.614;2022-11-20T01:03:10;6.97;;;3.10;;
52642;SDS011;38531;53.296;6.614;2022-11-20T01:05:36;9.10;;;3.88;;
52642;SDS011;38531;53.296;6.614;2022-11-20T01:08:01;6.38;;;3.17;;
52642;SDS011;38531;53.296;6.614;2022-11-20T01:10:27;6.10;;;3.30;;
52642;SDS011;38531;53.296;6.614;2022-11-20T01:12:52;6.80;;;3.35;;
52642;SDS011;38531;53.296;6.614;2022-11-20T01:15:38;6.47;;;3.50;;
52642;SDS011;38531;53.296;6.614;2022-11-20T01:18:04;8.70;;;3.95;;
52642;SDS011;38531;53.296;6.614;2022-11-20T01:20:33;7.35;;;3.13;;
52642;SDS011;38531;53.296;6.614;2022-11-20T01:23:00;6.90;;;3.00;;
52642;SDS011;38531;53.296;6.614;2022-11-20T01:25:26;9.02;;;3.30;;
52642;SDS011;38531;53.296;6.614;2022-11-20T01:27:52;6.25;;;3.00;;
52642;SDS011;38531;53.296;6.614;2022-11-20T01:30:17;6.50;;;2.97;;
52642;SDS011;38531;53.296;6.614;2022-11-20T01:32:43;7.93;;;3.45;;
52642;SDS011;38531;53.296;6.614;2022-11-20T01:35:09;6.00;;;2.78;;
52642;SDS011;38531;53.296;6.614;2022-11-20T01:37:35;8.43;;;3.38;;
52642;SDS011;38531;53.296;6.614;2022-11-20T01:40:00;8.05;;;3.63;;
52642;SDS011;38531;53.296;6.614;2022-11-20T01:42:27;7.32;;;3.92;;
52642;SDS011;38531;53.296;6.614;2022-11-20T01:48:08;7.32;;;3.35;;
52642;SDS011;38531;53.296;6.614;2022-11-20T01:50:34;6.82;;;2.88;;
52642;SDS011;38531;53.296;6.614;2022-11-20T01:53:01;8.57;;;3.42;;
52642;SDS011;38531;53.296;6.614;2022-11-20T01:55:33;7.78;;;3.50;;
52642;SDS011;38531;53.296;6.614;2022-11-20T01:58:01;7.03;;;3.45;;
52642;SDS011;38531;53.296;6.614;2022-11-20T02:00:28;10.00;;;4.00;;
52642;SDS011;38531;53.296;6.614;2022-11-20T02:02:56;7.18;;;3.97;;
52642;SDS011;38531;53.296;6.614;2022-11-20T02:05:40;10.25;;;4.43;;
52642;SDS011;38531;53.296;6.614;2022-11-20T02:08:16;7.95;;;3.13;;
52642;SDS011;38531;53.296;6.614;2022-11-20T02:10:44;7.90;;;3.35;;
52642;SDS011;38531;53.296;6.614;2022-11-20T02:13:10;6.30;;;3.35;;
52642;SDS011;38531;53.296;6.614;2022-11-20T02:15:54;5.30;;;3.00;;
52642;SDS011;38531;53.296;6.614;2022-11-20T02:18:20;6.20;;;3.17;;
52642;SDS011;38531;53.296;6.614;2022-11-20T02:20:47;6.35;;;3.15;;
52642;SDS011;38531;53.296;6.614;2022-11-20T02:23:24;6.70;;;3.47;;
52642;SDS011;38531;53.296;6.614;2022-11-20T02:25:58;6.82;;;3.17;;
52642;SDS011;38531;53.296;6.614;2022-11-20T02:28:25;7.72;;;3.45;;
52642;SDS011;38531;53.296;6.614;2022-11-20T02:30:52;8.63;;;3.28;;
52642;SDS011;38531;53.296;6.614;2022-11-20T02:33:17;5.35;;;2.70;;
52642;SDS011;38531;53.296;6.614;2022-11-20T02:35:44;7.00;;;3.15;;
52642;SDS011;38531;53.296;6.614;2022-11-20T02:38:11;6.20;;;2.78;;
52642;SDS011;38531;53.296;6.614;2022-11-20T02:40:37;8.73;;;3.63;;
52642;SDS011;38531;53.296;6.614;2022-11-20T02:43:03;7.47;;;2.85;;
52642;SDS011;38531;53.296;6.614;2022-11-20T02:45:28;6.88;;;2.70;;
52642;SDS011;38531;53.296;6.614;2022-11-20T02:47:54;6.00;;;3.17;;
52642;SDS011;38531;53.296;6.614;2022-11-20T02:50:20;7.97;;;4.05;;
52642;SDS011;38531;53.296;6.614;2022-11-20T02:52:45;7.38;;;3.42;;
52642;SDS011;38531;53.296;6.614;2022-11-20T02:55:11;6.80;;;3.00;;
52642;SDS011;38531;53.296;6.614;2022-11-20T02:57:37;7.07;;;2.90;;
52642;SDS011;38531;53.296;6.614;2022-11-20T03:00:03;5.63;;;3.05;;
52642;SDS011;38531;53.296;6.614;2022-11-20T03:02:30;8.05;;;3.25;;
52642;SDS011;38531;53.296;6.614;2022-11-20T03:04:56;8.68;;;4.03;;
52642;SDS011;38531;53.296;6.614;2022-11-20T03:07:22;7.18;;;3.15;;
52642;SDS011;38531;53.296;6.614;2022-11-20T03:09:47;6.38;;;3.00;;
52642;SDS011;38531;53.296;6.614;2022-11-20T03:12:13;7.38;;;4.05;;
52642;SDS011;38531;53.296;6.614;2022-11-20T03:14:39;8.43;;;4.30;;
52642;SDS011;38531;53.296;6.614;2022-11-20T03:17:05;9.05;;;3.95;;
52642;SDS011;38531;53.296;6.614;2022-11-20T03:19:31;7.03;;;3.35;;
52642;SDS011;38531;53.296;6.614;2022-11-20T03:21:56;6.10;;;3.20;;
52642;SDS011;38531;53.296;6.614;2022-11-20T03:24:22;7.00;;;3.10;;
52642;SDS011;38531;53.296;6.614;2022-11-20T03:26:48;8.52;;;3.55;;
52642;SDS011;38531;53.296;6.614;2022-11-20T03:29:13;8.60;;;3.70;;
52642;SDS011;38531;53.296;6.614;2022-11-20T03:31:40;7.53;;;3.60;;
52642;SDS011;38531;53.296;6.614;2022-11-20T03:34:06;8.40;;;2.97;;
52642;SDS011;38531;53.296;6.614;2022-11-20T03:36:33;6.38;;;3.78;;
52642;SDS011;38531;53.296;6.614;2022-11-20T03:38:58;7.57;;;3.42;;
52642;SDS011;38531;53.296;6.614;2022-11-20T03:41:27;6.80;;;3.58;;
52642;SDS011;38531;53.296;6.614;2022-11-20T03:43:55;5.68;;;3.60;;
52642;SDS011;38531;53.296;6.614;2022-11-20T03:46:26;13.82;;;12.50;;
52642;SDS011;38531;53.296;6.614;2022-11-20T03:48:53;52.17;;;48.90;;
52642;SDS011;38531;53.296;6.614;2022-11-20T03:51:20;14.80;;;13.60;;
52642;SDS011;38531;53.296;6.614;2022-11-20T03:53:48;10.38;;;8.50;;
52642;SDS011;38531;53.296;6.614;2022-11-20T03:56:16;35.17;;;32.88;;
52642;SDS011;38531;53.296;6.614;2022-11-20T03:58:43;57.97;;;54.65;;
52642;SDS011;38531;53.296;6.614;2022-11-20T04:01:16;56.95;;;53.55;;
52642;SDS011;38531;53.296;6.614;2022-11-20T04:03:44;46.00;;;43.25;;
52642;SDS011;38531;53.296;6.614;2022-11-20T04:06:13;63.30;;;59.35;;
52642;SDS011;38531;53.296;6.614;2022-11-20T04:08:40;52.70;;;49.88;;
52642;SDS011;38531;53.296;6.614;2022-11-20T04:11:13;78.68;;;74.47;;
52642;SDS011;38531;53.296;6.614;2022-11-20T04:13:40;59.53;;;56.20;;
52642;SDS011;38531;53.296;6.614;2022-11-20T04:16:07;119.50;;;113.03;;
52642;SDS011;38531;53.296;6.614;2022-11-20T04:18:34;76.10;;;72.00;;
52642;SDS011;38531;53.296;6.614;2022-11-20T04:20:59;157.27;;;148.63;;
52642;SDS011;38531;53.296;6.614;2022-11-20T04:23:28;220.82;;;203.00;;
52642;SDS011;38531;53.296;6.614;2022-11-20T04:25:54;165.75;;;155.43;;
52642;SDS011;38531;53.296;6.614;2022-11-20T04:28:20;182.98;;;165.13;;
52642;SDS011;38531;53.296;6.614;2022-11-20T04:30:45;80.38;;;75.57;;
52642;SDS011;38531;53.296;6.614;2022-11-20T04:33:11;41.38;;;38.78;;
52642;SDS011;38531;53.296;6.614;2022-11-20T04:35:37;156.10;;;138.73;;
52642;SDS011;38531;53.296;6.614;2022-11-20T04:38:03;71.53;;;66.18;;
52642;SDS011;38531;53.296;6.614;2022-11-20T04:40:29;11.20;;;8.98;;
52642;SDS011;38531;53.296;6.614;2022-11-20T04:42:55;37.42;;;34.33;;
52642;SDS011;38531;53.296;6.614;2022-11-20T04:45:24;9.43;;;3.67;;
52642;SDS011;38531;53.296;6.614;2022-11-20T04:47:49;22.30;;;20.65;;
52642;SDS011;38531;53.296;6.614;2022-11-20T04:50:15;82.97;;;76.25;;
52642;SDS011;38531;53.296;6.614;2022-11-20T04:52:40;19.60;;;18.13;;
52642;SDS011;38531;53.296;6.614;2022-11-20T04:55:06;8.15;;;3.50;;
52642;SDS011;38531;53.296;6.614;2022-11-20T04:57:32;52.00;;;48.38;;
52642;SDS011;38531;53.296;6.614;2022-11-20T04:59:58;33.15;;;30.42;;
52642;SDS011;38531;53.296;6.614;2022-11-20T05:02:24;24.95;;;23.40;;
52642;SDS011;38531;53.296;6.614;2022-11-20T05:04:49;103.05;;;96.97;;
52642;SDS011;38531;53.296;6.614;2022-11-20T05:07:15;118.93;;;110.15;;
52642;SDS011;38531;53.296;6.614;2022-11-20T05:09:41;178.07;;;166.75;;
52642;SDS011;38531;53.296;6.614;2022-11-20T05:12:07;20.52;;;18.60;;
52642;SDS011;38531;53.296;6.614;2022-11-20T05:14:33;97.70;;;92.32;;
52642;SDS011;38531;53.296;6.614;2022-11-20T05:16:59;181.65;;;167.23;;
52642;SDS011;38531;53.296;6.614;2022-11-20T05:19:24;125.47;;;116.10;;
52642;SDS011;38531;53.296;6.614;2022-11-20T05:21:50;174.75;;;163.52;;
52642;SDS011;38531;53.296;6.614;2022-11-20T05:24:16;130.55;;;120.63;;
52642;SDS011;38531;53.296;6.614;2022-11-20T05:26:41;130.98;;;121.72;;
52642;SDS011;38531;53.296;6.614;2022-11-20T05:29:09;176.60;;;164.70;;
52642;SDS011;38531;53.296;6.614;2022-11-20T05:31:36;130.52;;;120.95;;
52642;SDS011;38531;53.296;6.614;2022-11-20T05:34:02;176.88;;;164.40;;
52642;SDS011;38531;53.296;6.614;2022-11-20T05:36:27;205.70;;;187.23;;
52642;SDS011;38531;53.296;6.614;2022-11-20T05:38:54;151.18;;;136.85;;
52642;SDS011;38531;53.296;6.614;2022-11-20T05:41:20;140.80;;;128.88;;
52642;SDS011;38531;53.296;6.614;2022-11-20T05:43:46;159.38;;;143.18;;
52642;SDS011;38531;53.296;6.614;2022-11-20T05:46:14;227.43;;;203.60;;
52642;SDS011;38531;53.296;6.614;2022-11-20T05:48:44;180.43;;;162.70;;
52642;SDS011;38531;53.296;6.614;2022-11-20T05:51:11;211.85;;;177.23;;
52642;SDS011;38531;53.296;6.614;2022-11-20T05:53:39;178.63;;;159.98;;
52642;SDS011;38531;53.296;6.614;2022-11-20T05:56:18;134.80;;;125.53;;
52642;SDS011;38531;53.296;6.614;2022-11-20T05:58:44;180.32;;;168.43;;
52642;SDS011;38531;53.296;6.614;2022-11-20T06:01:12;215.18;;;197.45;;
52642;SDS011;38531;53.296;6.614;2022-11-20T06:03:40;146.25;;;135.82;;
52642;SDS011;38531;53.296;6.614;2022-11-20T06:06:08;114.32;;;108.22;;
52642;SDS011;38531;53.296;6.614;2022-11-20T06:08:34;124.20;;;114.47;;
52642;SDS011;38531;53.296;6.614;2022-11-20T06:11:10;229.15;;;207.13;;
52642;SDS011;38531;53.296;6.614;2022-11-20T06:13:37;406.27;;;230.35;;
52642;SDS011;38531;53.296;6.614;2022-11-20T06:16:02;144.57;;;89.97;;
52642;SDS011;38531;53.296;6.614;2022-11-20T06:18:28;352.48;;;229.07;;
52642;SDS011;38531;53.296;6.614;2022-11-20T06:21:02;362.95;;;215.00;;
52642;SDS011;38531;53.296;6.614;2022-11-20T06:23:29;324.00;;;237.35;;
52642;SDS011;38531;53.296;6.614;2022-11-20T06:25:56;364.40;;;219.07;;
52642;SDS011;38531;53.296;6.614;2022-11-20T06:28:22;318.05;;;205.82;;
52642;SDS011;38531;53.296;6.614;2022-11-20T06:30:48;333.55;;;223.75;;
52642;SDS011;38531;53.296;6.614;2022-11-20T06:33:14;141.40;;;105.85;;
52642;SDS011;38531;53.296;6.614;2022-11-20T06:35:39;310.00;;;222.13;;
52642;SDS011;38531;53.296;6.614;2022-11-20T06:38:05;367.92;;;211.63;;
52642;SDS011;38531;53.296;6.614;2022-11-20T06:40:30;291.40;;;192.32;;
52642;SDS011;38531;53.296;6.614;2022-11-20T06:42:56;361.27;;;226.77;;
52642;SDS011;38531;53.296;6.614;2022-11-20T06:45:21;277.27;;;219.95;;
52642;SDS011;38531;53.296;6.614;2022-11-20T06:47:47;175.57;;;156.95;;
52642;SDS011;38531;53.296;6.614;2022-11-20T06:50:13;228.63;;;203.52;;
52642;SDS011;38531;53.296;6.614;2022-11-20T06:52:38;202.82;;;166.90;;
52642;SDS011;38531;53.296;6.614;2022-11-20T06:55:04;230.98;;;171.75;;
52642;SDS011;38531;53.296;6.614;2022-11-20T06:57:30;258.23;;;211.65;;
52642;SDS011;38531;53.296;6.614;2022-11-20T06:59:55;198.57;;;170.50;;
52642;SDS011;38531;53.296;6.614;2022-11-20T07:02:21;183.55;;;149.52;;
52642;SDS011;38531;53.296;6.614;2022-11-20T07:04:47;331.98;;;214.52;;
52642;SDS011;38531;53.296;6.614;2022-11-20T07:07:12;226.35;;;145.52;;
52642;SDS011;38531;53.296;6.614;2022-11-20T07:09:38;379.67;;;215.13;;
52642;SDS011;38531;53.296;6.614;2022-11-20T07:12:04;342.15;;;190.75;;
52642;SDS011;38531;53.296;6.614;2022-11-20T07:14:30;294.73;;;174.68;;
52642;SDS011;38531;53.296;6.614;2022-11-20T07:16:55;385.63;;;221.13;;
52642;SDS011;38531;53.296;6.614;2022-11-20T07:19:21;304.23;;;184.48;;
52642;SDS011;38531;53.296;6.614;2022-11-20T07:21:47;299.30;;;180.73;;
52642;SDS011;38531;53.296;6.614;2022-11-20T07:24:12;308.88;;;204.05;;
52642;SDS011;38531;53.296;6.614;2022-11-20T07:26:38;273.52;;;199.75;;
52642;SDS011;38531;53.296;6.614;2022-11-20T07:29:03;152.77;;;136.60;;
52642;SDS011;38531;53.296;6.614;2022-11-20T07:31:29;112.93;;;105.13;;
52642;SDS011;38531;53.296;6.614;2022-11-20T07:33:55;195.27;;;178.00;;
52642;SDS011;38531;53.296;6.614;2022-11-20T07:36:20;200.07;;;181.30;;
52642;SDS011;38531;53.296;6.614;2022-11-20T07:38:46;45.85;;;35.33;;
52642;SDS011;38531;53.296;6.614;2022-11-20T07:41:11;241.32;;;164.82;;
52642;SDS011;38531;53.296;6.614;2022-11-20T07:43:37;281.55;;;200.02;;
52642;SDS011;38531;53.296;6.614;2022-11-20T07:46:03;289.95;;;196.30;;
52642;SDS011;38531;53.296;6.614;2022-11-20T07:48:29;291.35;;;174.38;;
52642;SDS011;38531;53.296;6.614;2022-11-20T07:50:57;297.30;;;177.27;;
52642;SDS011;38531;53.296;6.614;2022-11-20T07:53:23;286.80;;;174.77;;
52642;SDS011;38531;53.296;6.614;2022-11-20T07:55:49;262.27;;;164.20;;
52642;SDS011;38531;53.296;6.614;2022-11-20T07:58:17;250.88;;;155.88;;
52642;SDS011;38531;53.296;6.614;2022-11-20T08:00:44;285.65;;;185.85;;
52642;SDS011;38531;53.296;6.614;2022-11-20T08:03:09;271.38;;;164.27;;
52642;SDS011;38531;53.296;6.614;2022-11-20T08:05:35;305.58;;;188.90;;
52642;SDS011;38531;53.296;6.614;2022-11-20T08:08:02;317.35;;;179.82;;
52642;SDS011;38531;53.296;6.614;2022-11-20T08:10:27;326.30;;;185.55;;
52642;SDS011;38531;53.296;6.614;2022-11-20T08:12:53;264.05;;;175.45;;
52642;SDS011;38531;53.296;6.614;2022-11-20T08:15:38;284.98;;;178.02;;
52642;SDS011;38531;53.296;6.614;2022-11-20T08:18:05;306.17;;;168.02;;
52642;SDS011;38531;53.296;6.614;2022-11-20T08:20:32;275.30;;;161.48;;
52642;SDS011;38531;53.296;6.614;2022-11-20T08:23:03;274.25;;;159.15;;
52642;SDS011;38531;53.296;6.614;2022-11-20T08:25:30;275.13;;;159.57;;
52642;SDS011;38531;53.296;6.614;2022-11-20T08:27:58;278.70;;;159.27;;
52642;SDS011;38531;53.296;6.614;2022-11-20T08:30:24;302.65;;;176.18;;
52642;SDS011;38531;53.296;6.614;2022-11-20T08:32:50;309.52;;;179.00;;
52642;SDS011;38531;53.296;6.614;2022-11-20T08:35:16;165.90;;;129.13;;
52642;SDS011;38531;53.296;6.614;2022-11-20T08:37:41;186.35;;;136.90;;
52642;SDS011;38531;53.296;6.614;2022-11-20T08:40:11;6.35;;;3.30;;
52642;SDS011;38531;53.296;6.614;2022-11-20T08:42:37;5.78;;;3.03;;
52642;SDS011;38531;53.296;6.614;2022-11-20T08:45:10;5.68;;;3.03;;
52642;SDS011;38531;53.296;6.614;2022-11-20T08:47:36;8.43;;;4.65;;
52642;SDS011;38531;53.296;6.614;2022-11-20T08:50:01;6.88;;;3.58;;
52642;SDS011;38531;53.296;6.614;2022-11-20T08:52:27;49.13;;;45.42;;
52642;SDS011;38531;53.296;6.614;2022-11-20T08:54:53;5.30;;;4.00;;
52642;SDS011;38531;53.296;6.614;2022-11-20T08:57:19;24.02;;;21.75;;
52642;SDS011;38531;53.296;6.614;2022-11-20T08:59:44;6.05;;;2.40;;
52642;SDS011;38531;53.296;6.614;2022-11-20T09:02:10;6.65;;;3.30;;
52642;SDS011;38531;53.296;6.614;2022-11-20T09:04:37;6.35;;;3.67;;
52642;SDS011;38531;53.296;6.614;2022-11-20T09:07:02;6.45;;;3.50;;
52642;SDS011;38531;53.296;6.614;2022-11-20T09:09:28;7.18;;;3.30;;
52642;SDS011;38531;53.296;6.614;2022-11-20T09:11:54;6.10;;;3.40;;
52642;SDS011;38531;53.296;6.614;2022-11-20T09:14:19;4.95;;;2.92;;
52642;SDS011;38531;53.296;6.614;2022-11-20T09:16:46;6.00;;;3.17;;
52642;SDS011;38531;53.296;6.614;2022-11-20T09:19:12;5.13;;;2.63;;
52642;SDS011;38531;53.296;6.614;2022-11-20T09:21:37;4.93;;;2.25;;
52642;SDS011;38531;53.296;6.614;2022-11-20T09:24:04;6.03;;;2.97;;
52642;SDS011;38531;53.296;6.614;2022-11-20T09:26:30;9.60;;;3.90;;
52642;SDS011;38531;53.296;6.614;2022-11-20T09:28:55;6.97;;;2.92;;
52642;SDS011;38531;53.296;6.614;2022-11-20T09:31:22;8.13;;;3.80;;
52642;SDS011;38531;53.296;6.614;2022-11-20T09:33:49;8.20;;;3.65;;
52642;SDS011;38531;53.296;6.614;2022-11-20T09:36:15;5.43;;;2.70;;
52642;SDS011;38531;53.296;6.614;2022-11-20T09:38:41;6.13;;;2.97;;
52642;SDS011;38531;53.296;6.614;2022-11-20T09:41:14;8.40;;;3.67;;
52642;SDS011;38531;53.296;6.614;2022-11-20T09:52:21;9.38;;;3.90;;
52642;SDS011;38531;53.296;6.614;2022-11-20T09:55:02;6.38;;;2.97;;
52642;SDS011;38531;53.296;6.614;2022-11-20T09:57:33;4.20;;;2.50;;
52642;SDS011;38531;53.296;6.614;2022-11-20T10:00:06;10.05;;;4.03;;
52642;SDS011;38531;53.296;6.614;2022-11-20T10:05:53;8.05;;;6.15;;
52642;SDS011;38531;53.296;6.614;2022-11-20T10:08:21;5.90;;;3.10;;
52642;SDS011;38531;53.296;6.614;2022-11-20T10:10:53;20.35;;;16.83;;
52642;SDS011;38531;53.296;6.614;2022-11-20T10:13:32;9.07;;;4.30;;
52642;SDS011;38531;53.296;6.614;2022-11-20T10:16:30;9.55;;;5.43;;
52642;SDS011;38531;53.296;6.614;2022-11-20T10:21:48;21.02;;;19.48;;
52642;SDS011;38531;53.296;6.614;2022-11-20T10:24:30;7.80;;;4.78;;
52642;SDS011;38531;53.296;6.614;2022-11-20T10:29:45;15.13;;;12.52;;
52642;SDS011;38531;53.296;6.614;2022-11-20T10:32:18;8.55;;;4.28;;
52642;SDS011;38531;53.296;6.614;2022-11-20T10:34:57;14.32;;;13.05;;
52642;SDS011;38531;53.296;6.614;2022-11-20T10:37:27;9.90;;;7.88;;
52642;SDS011;38531;53.296;6.614;2022-11-20T10:45:59;11.05;;;8.23;;
52642;SDS011;38531;53.296;6.614;2022-11-20T10:48:30;18.95;;;17.30;;
52642;SDS011;38531;53.296;6.614;2022-11-20T10:57:10;65.20;;;60.38;;
52642;SDS011;38531;53.296;6.614;2022-11-20T10:59:49;8.13;;;4.07;;
52642;SDS011;38531;53.296;6.614;2022-11-20T11:02:31;9.13;;;4.90;;
52642;SDS011;38531;53.296;6.614;2022-11-20T11:04:59;5.83;;;2.80;;
52642;SDS011;38531;53.296;6.614;2022-11-20T11:07:45;8.77;;;5.22;;
52642;SDS011;38531;53.296;6.614;2022-11-20T11:10:21;24.40;;;22.60;;
52642;SDS011;38531;53.296;6.614;2022-11-20T11:12:53;8.65;;;4.43;;
52642;SDS011;38531;53.296;6.614;2022-11-20T11:15:29;6.72;;;3.50;;
52642;SDS011;38531;53.296;6.614;2022-11-20T11:18:02;6.00;;;3.40;;
52642;SDS011;38531;53.296;6.614;2022-11-20T11:20:28;5.68;;;3.45;;
52642;SDS011;38531;53.296;6.614;2022-11-20T11:22:54;7.90;;;4.28;;
52642;SDS011;38531;53.296;6.614;2022-11-20T11:25:29;6.72;;;3.50;;
52642;SDS011;38531;53.296;6.614;2022-11-20T11:28:32;7.65;;;4.03;;
52642;SDS011;38531;53.296;6.614;2022-11-20T11:30:54;8.65;;;3.92;;
52642;SDS011;38531;53.296;6.614;2022-11-20T11:35:51;7.07;;;3.80;;
52642;SDS011;38531;53.296;6.614;2022-11-20T11:38:27;6.53;;;3.42;;
52642;SDS011;38531;53.296;6.614;2022-11-20T11:41:19;7.28;;;3.83;;
52642;SDS011;38531;53.296;6.614;2022-11-20T11:43:52;6.72;;;3.22;;
52642;SDS011;38531;53.296;6.614;2022-11-20T11:46:39;6.20;;;3.30;;
52642;SDS011;38531;53.296;6.614;2022-11-20T11:49:17;6.00;;;2.97;;
52642;SDS011;38531;53.296;6.614;2022-11-20T12:02:39;5.30;;;3.00;;
52642;SDS011;38531;53.296;6.614;2022-11-20T12:10:53;5.20;;;3.08;;
52642;SDS011;38531;53.296;6.614;2022-11-20T12:13:33;5.18;;;2.72;;
52642;SDS011;38531;53.296;6.614;2022-11-20T12:16:17;6.35;;;3.17;;
52642;SDS011;38531;53.296;6.614;2022-11-20T12:18:44;5.50;;;2.92;;
52642;SDS011;38531;53.296;6.614;2022-11-20T12:21:18;6.30;;;3.15;;
52642;SDS011;38531;53.296;6.614;2022-11-20T12:44:15;6.57;;;3.08;;
52642;SDS011;38531;53.296;6.614;2022-11-20T12:51:34;5.10;;;2.53;;
52642;SDS011;38531;53.296;6.614;2022-11-20T12:56:56;4.95;;;2.50;;
52642;SDS011;38531;53.296;6.614;2022-11-20T13:02:43;5.32;;;2.90;;
52642;SDS011;38531;53.296;6.614;2022-11-20T13:07:54;4.25;;;2.55;;
52642;SDS011;38531;53.296;6.614;2022-11-20T13:10:36;4.38;;;2.30;;
52642;SDS011;38531;53.296;6.614;2022-11-20T13:16:04;5.70;;;2.75;;
52642;SDS011;38531;53.296;6.614;2022-11-20T13:18:42;4.82;;;2.40;;
52642;SDS011;38531;53.296;6.614;2022-11-20T13:21:22;4.82;;;2.28;;
52642;SDS011;38531;53.296;6.614;2022-11-20T13:24:05;4.80;;;2.20;;
52642;SDS011;38531;53.296;6.614;2022-11-20T13:26:31;3.80;;;2.25;;
52642;SDS011;38531;53.296;6.614;2022-11-20T13:29:08;4.68;;;2.33;;
52642;SDS011;38531;53.296;6.614;2022-11-20T13:31:38;3.58;;;2.08;;
52642;SDS011;38531;53.296;6.614;2022-11-20T13:34:10;3.03;;;1.52;;
52642;SDS011;38531;53.296;6.614;2022-11-20T13:36:53;2.45;;;1.27;;
52642;SDS011;38531;53.296;6.614;2022-11-20T13:39:27;3.20;;;1.80;;
52642;SDS011;38531;53.296;6.614;2022-11-20T13:41:56;2.42;;;1.38;;
52642;SDS011;38531;53.296;6.614;2022-11-20T13:44:35;2.65;;;1.40;;
52642;SDS011;38531;53.296;6.614;2022-11-20T13:47:04;3.08;;;1.40;;
52642;SDS011;38531;53.296;6.614;2022-11-20T13:49:47;2.90;;;1.50;;
52642;SDS011;38531;53.296;6.614;2022-11-20T13:55:04;3.45;;;1.42;;
52642;SDS011;38531;53.296;6.614;2022-11-20T14:00:28;3.22;;;1.50;;
52642;SDS011;38531;53.296;6.614;2022-11-20T14:05:34;3.25;;;1.35;;
52642;SDS011;38531;53.296;6.614;2022-11-20T14:08:03;5.22;;;4.13;;
52642;SDS011;38531;53.296;6.614;2022-11-20T14:10:31;4.60;;;3.25;;
52642;SDS011;38531;53.296;6.614;2022-11-20T14:12:57;33.78;;;30.83;;
52642;SDS011;38531;53.296;6.614;2022-11-20T14:15:24;21.67;;;20.27;;
52642;SDS011;38531;53.296;6.614;2022-11-20T14:17:53;3.97;;;2.17;;
52642;SDS011;38531;53.296;6.614;2022-11-20T14:20:19;121.82;;;111.13;;
52642;SDS011;38531;53.296;6.614;2022-11-20T14:22:50;89.70;;;82.68;;
52642;SDS011;38531;53.296;6.614;2022-11-20T14:33:11;19.27;;;17.98;;
52642;SDS011;38531;53.296;6.614;2022-11-20T14:35:49;10.02;;;9.30;;
52642;SDS011;38531;53.296;6.614;2022-11-20T14:38:17;33.33;;;31.40;;
52642;SDS011;38531;53.296;6.614;2022-11-20T14:40:46;31.17;;;29.20;;
52642;SDS011;38531;53.296;6.614;2022-11-20T14:43:25;74.82;;;70.00;;
52642;SDS011;38531;53.296;6.614;2022-11-20T14:45:56;39.63;;;37.30;;
52642;SDS011;38531;53.296;6.614;2022-11-20T14:48:41;23.77;;;22.48;;
52642;SDS011;38531;53.296;6.614;2022-11-20T14:51:12;29.92;;;27.95;;
52642;SDS011;38531;53.296;6.614;2022-11-20T14:54:14;33.25;;;31.23;;
52642;SDS011;38531;53.296;6.614;2022-11-20T14:56:41;36.40;;;33.53;;
52642;SDS011;38531;53.296;6.614;2022-11-20T14:59:22;28.38;;;26.42;;
52642;SDS011;38531;53.296;6.614;2022-11-20T15:02:09;95.15;;;86.65;;
52642;SDS011;38531;53.296;6.614;2022-11-20T15:04:49;3.28;;;2.97;;
52642;SDS011;38531;53.296;6.614;2022-11-20T15:07:29;13.93;;;12.85;;
52642;SDS011;38531;53.296;6.614;2022-11-20T15:10:13;48.15;;;44.83;;
52642;SDS011;38531;53.296;6.614;2022-11-20T15:12:40;50.60;;;45.38;;
52642;SDS011;38531;53.296;6.614;2022-11-20T15:15:12;77.15;;;71.90;;
52642;SDS011;38531;53.296;6.614;2022-11-20T15:17:44;18.92;;;17.70;;
52642;SDS011;38531;53.296;6.614;2022-11-20T15:20:11;52.50;;;48.22;;
52642;SDS011;38531;53.296;6.614;2022-11-20T15:22:40;93.63;;;84.47;;
52642;SDS011;38531;53.296;6.614;2022-11-20T15:25:13;72.88;;;66.78;;
52642;SDS011;38531;53.296;6.614;2022-11-20T15:27:44;70.65;;;65.30;;
52642;SDS011;38531;53.296;6.614;2022-11-20T15:30:14;30.33;;;27.88;;
52642;SDS011;38531;53.296;6.614;2022-11-20T15:32:42;74.85;;;68.28;;
52642;SDS011;38531;53.296;6.614;2022-11-20T15:35:09;69.65;;;59.67;;
52642;SDS011;38531;53.296;6.614;2022-11-20T15:37:38;47.78;;;42.33;;
52642;SDS011;38531;53.296;6.614;2022-11-20T15:40:06;8.93;;;7.63;;
52642;SDS011;38531;53.296;6.614;2022-11-20T15:42:32;37.20;;;34.03;;
52642;SDS011;38531;53.296;6.614;2022-11-20T15:44:58;34.95;;;32.35;;
52642;SDS011;38531;53.296;6.614;2022-11-20T15:47:25;62.33;;;57.80;;
52642;SDS011;38531;53.296;6.614;2022-11-20T15:49:57;86.15;;;78.88;;
52642;SDS011;38531;53.296;6.614;2022-11-20T15:52:26;68.93;;;63.50;;
52642;SDS011;38531;53.296;6.614;2022-11-20T15:55:09;4.78;;;2.25;;
52642;SDS011;38531;53.296;6.614;2022-11-20T15:57:56;3.97;;;2.13;;
52642;SDS011;38531;53.296;6.614;2022-11-20T16:00:27;23.48;;;21.65;;
52642;SDS011;38531;53.296;6.614;2022-11-20T16:03:04;91.15;;;83.05;;
52642;SDS011;38531;53.296;6.614;2022-11-20T16:05:30;42.67;;;38.67;;
52642;SDS011;38531;53.296;6.614;2022-11-20T16:07:56;4.18;;;2.17;;
52642;SDS011;38531;53.296;6.614;2022-11-20T16:10:28;54.00;;;49.40;;
52642;SDS011;38531;53.296;6.614;2022-11-20T16:13:03;82.07;;;73.93;;
52642;SDS011;38531;53.296;6.614;2022-11-20T16:15:58;24.38;;;22.27;;
52642;SDS011;38531;53.296;6.614;2022-11-20T16:18:26;30.17;;;25.88;;
52642;SDS011;38531;53.296;6.614;2022-11-20T16:20:54;67.47;;;61.05;;
52642;SDS011;38531;53.296;6.614;2022-11-20T16:23:20;101.18;;;77.97;;
52642;SDS011;38531;53.296;6.614;2022-11-20T16:25:49;127.82;;;94.50;;